Time;durP1;ratioP1;P1;durP2;ratioP2;P2;SDS_P1;SDS_P2;PMS_P1;PMS_P2;Temp;Humidity;BMP_temperature;BMP_pressure;BME280_temperature;BME280_humidity;BME280_pressure;Samples;Min_cycle;Max_cycle;Signal;HPM_P1;HPM_P2
2022/11/14 00:02:32;;;;;;;3.80;1.13;;;;;;;;;;4930190;29;20500;-72
2022/11/14 00:05:17;;;;;;;1.00;1.00;;;;;;;;;;4930146;29;20425;-72
2022/11/14 00:08:01;;;;;;;1.20;1.05;;;;;;;;;;4930232;29;20043;-73
2022/11/14 00:10:46;;;;;;;1.65;1.45;;;;;;;;;;4915589;29;20051;-72
2022/11/14 00:13:31;;;;;;;1.13;0.90;;;;;;;;;;4912798;29;20132;-72
2022/11/14 00:16:15;;;;;;;1.00;1.00;;;;;;;;;;4930266;29;20714;-72
2022/11/14 00:19:00;;;;;;;1.25;1.25;;;;;;;;;;4930071;29;20034;-71
2022/11/14 00:21:45;;;;;;;1.00;1.00;;;;;;;;;;4932531;29;20158;-72
2022/11/14 00:24:29;;;;;;;0.82;0.82;;;;;;;;;;4947703;28;20122;-71
2022/11/14 00:27:14;;;;;;;1.13;1.13;;;;;;;;;;4949857;29;20126;-70
2022/11/14 00:29:58;;;;;;;1.20;1.13;;;;;;;;;;4949507;29;20079;-71
2022/11/14 00:32:42;;;;;;;0.98;0.90;;;;;;;;;;4931946;29;20031;-71
2022/11/14 00:35:27;;;;;;;1.02;1.02;;;;;;;;;;4949436;29;20120;-70
2022/11/14 00:38:12;;;;;;;0.93;0.93;;;;;;;;;;4949235;29;20114;-72
2022/11/14 00:40:56;;;;;;;1.00;1.00;;;;;;;;;;4918617;29;20047;-71
2022/11/14 00:43:41;;;;;;;1.00;1.00;;;;;;;;;;4948755;29;20031;-72
2022/11/14 00:46:25;;;;;;;0.98;0.98;;;;;;;;;;4934434;29;20057;-72
2022/11/14 00:49:09;;;;;;;0.90;0.90;;;;;;;;;;4931616;29;20050;-70
2022/11/14 00:51:54;;;;;;;2.60;1.15;;;;;;;;;;4934273;29;20059;-72
2022/11/14 00:54:38;;;;;;;0.90;0.90;;;;;;;;;;4934208;29;20035;-73
2022/11/14 00:57:23;;;;;;;1.42;1.33;;;;;;;;;;4948809;29;20058;-73
2022/11/14 01:00:07;;;;;;;0.88;0.88;;;;;;;;;;4948805;29;20039;-71
2022/11/14 01:02:55;;;;;;;1.90;1.23;;;;;;;;;;4948541;29;20035;-72
2022/11/14 01:05:40;;;;;;;1.13;1.02;;;;;;;;;;4948649;29;20034;-72
2022/11/14 01:08:24;;;;;;;1.00;1.00;;;;;;;;;;4947523;29;20039;-71
2022/11/14 01:11:10;;;;;;;1.02;1.02;;;;;;;;;;4948604;29;20050;-70
2022/11/14 01:13:54;;;;;;;1.02;1.00;;;;;;;;;;4941048;29;20221;-71
2022/11/14 01:16:38;;;;;;;1.05;1.05;;;;;;;;;;4948672;28;20138;-70
2022/11/14 01:19:23;;;;;;;0.80;0.80;;;;;;;;;;4952321;29;20039;-70
2022/11/14 01:22:07;;;;;;;1.52;1.23;;;;;;;;;;4952187;29;20058;-71
2022/11/14 01:24:54;;;;;;;1.55;0.98;;;;;;;;;;4952269;29;20194;-72
2022/11/14 01:27:38;;;;;;;1.52;0.93;;;;;;;;;;4934494;29;20031;-72
2022/11/14 01:30:22;;;;;;;0.90;0.90;;;;;;;;;;4924208;29;20043;-71
2022/11/14 01:33:07;;;;;;;0.80;0.80;;;;;;;;;;4951975;29;20093;-70
2022/11/14 01:35:52;;;;;;;1.15;1.10;;;;;;;;;;4934708;29;20039;-71
2022/11/14 01:38:37;;;;;;;0.88;0.88;;;;;;;;;;4951873;29;20042;-71
2022/11/14 01:41:21;;;;;;;1.60;0.93;;;;;;;;;;4934748;29;20031;-70
2022/11/14 01:44:15;;;;;;;1.00;1.00;;;;;;;;;;4951857;29;20045;-70
2022/11/14 01:46:59;;;;;;;0.90;0.90;;;;;;;;;;4936216;28;20031;-72
2022/11/14 01:49:45;;;;;;;0.90;0.90;;;;;;;;;;4943810;28;20043;-69
2022/11/14 01:52:33;;;;;;;0.80;0.80;;;;;;;;;;4920458;29;20047;-71
2022/11/14 01:55:18;;;;;;;0.80;0.80;;;;;;;;;;4918251;29;20082;-71
2022/11/14 01:58:02;;;;;;;0.77;0.77;;;;;;;;;;4931566;29;20028;-71
2022/11/14 02:00:46;;;;;;;1.23;1.13;;;;;;;;;;4919556;29;20042;-71
2022/11/14 02:03:31;;;;;;;0.90;0.90;;;;;;;;;;4932191;29;20032;-72
2022/11/14 02:06:17;;;;;;;1.67;1.58;;;;;;;;;;4918766;29;20055;-70
2022/11/14 02:09:03;;;;;;;5.07;1.10;;;;;;;;;;4932554;29;20036;-70
2022/11/14 02:11:47;;;;;;;6.65;2.13;;;;;;;;;;4932290;29;20106;-71
2022/11/14 02:14:32;;;;;;;3.05;1.65;;;;;;;;;;4932398;29;20488;-72
2022/11/14 02:17:17;;;;;;;4.55;1.60;;;;;;;;;;4917872;29;20902;-71
2022/11/14 02:20:10;;;;;;;1.10;1.10;;;;;;;;;;4951185;28;20059;-76
2022/11/14 02:22:55;;;;;;;3.88;0.90;;;;;;;;;;4951356;29;20027;-77
2022/11/14 02:25:39;;;;;;;1.50;1.40;;;;;;;;;;4936837;28;20599;-77
2022/11/14 02:28:23;;;;;;;1.88;1.27;;;;;;;;;;4950009;28;20043;-78
2022/11/14 02:31:07;;;;;;;2.30;0.90;;;;;;;;;;4936952;29;20570;-77
2022/11/14 02:33:52;;;;;;;0.80;0.80;;;;;;;;;;4933714;29;20039;-76
2022/11/14 02:36:36;;;;;;;1.10;1.10;;;;;;;;;;4951172;29;20094;-78
2022/11/14 02:39:21;;;;;;;1.00;0.98;;;;;;;;;;4936626;29;20053;-78
2022/11/14 02:42:05;;;;;;;0.80;0.80;;;;;;;;;;4951142;29;20047;-78
2022/11/14 02:44:50;;;;;;;1.00;1.00;;;;;;;;;;4933804;29;20035;-78
2022/11/14 02:47:34;;;;;;;1.33;0.98;;;;;;;;;;4950990;29;20050;-78
2022/11/14 02:50:19;;;;;;;1.17;1.15;;;;;;;;;;4936454;29;20436;-77
2022/11/14 02:53:03;;;;;;;1.00;1.00;;;;;;;;;;4950186;28;20050;-76
2022/11/14 02:55:48;;;;;;;1.15;1.15;;;;;;;;;;4950694;28;20039;-76
2022/11/14 02:58:32;;;;;;;2.13;1.50;;;;;;;;;;4950883;28;20134;-79
2022/11/14 03:01:17;;;;;;;0.80;0.80;;;;;;;;;;4950635;28;20047;-77
2022/11/14 03:04:01;;;;;;;1.20;1.10;;;;;;;;;;4943170;29;20047;-77
2022/11/14 03:06:46;;;;;;;0.90;0.90;;;;;;;;;;4925568;28;20062;-78
2022/11/14 03:09:30;;;;;;;1.15;0.90;;;;;;;;;;4942468;28;20042;-78
2022/11/14 03:12:18;;;;;;;4.03;1.40;;;;;;;;;;4949299;28;20038;-78
2022/11/14 03:15:04;;;;;;;2.03;1.13;;;;;;;;;;4940024;29;20752;-78
2022/11/14 03:17:49;;;;;;;3.00;1.20;;;;;;;;;;4951181;29;20051;-78
2022/11/14 03:20:33;;;;;;;4.82;1.35;;;;;;;;;;4929663;29;20052;-79
2022/11/14 03:23:18;;;;;;;2.58;1.13;;;;;;;;;;4932889;29;20420;-79
2022/11/14 03:26:03;;;;;;;1.23;1.13;;;;;;;;;;4932355;29;20461;-79
2022/11/14 03:28:47;;;;;;;0.90;0.90;;;;;;;;;;4925485;29;20079;-79
2022/11/14 03:31:32;;;;;;;1.38;1.30;;;;;;;;;;4915803;29;20513;-80
2022/11/14 03:34:17;;;;;;;1.42;1.20;;;;;;;;;;4928198;29;20036;-80
2022/11/14 03:37:01;;;;;;;2.13;1.30;;;;;;;;;;4931121;29;20036;-80
2022/11/14 03:39:45;;;;;;;2.33;2.13;;;;;;;;;;4930463;29;20044;-80
2022/11/14 03:42:33;;;;;;;1.27;0.90;;;;;;;;;;4910821;29;20028;-81
2022/11/14 03:45:18;;;;;;;2.90;1.55;;;;;;;;;;4930361;29;20050;-80
2022/11/14 03:48:03;;;;;;;4.43;1.42;;;;;;;;;;4915286;29;20062;-78
2022/11/14 03:50:47;;;;;;;1.60;1.50;;;;;;;;;;4916885;29;20039;-78
2022/11/14 03:53:31;;;;;;;2.25;1.40;;;;;;;;;;4927792;29;20105;-78
2022/11/14 03:56:16;;;;;;;2.45;1.40;;;;;;;;;;4897497;29;20446;-79
2022/11/14 03:59:00;;;;;;;2.25;1.50;;;;;;;;;;4900770;29;20087;-79
2022/11/14 04:01:45;;;;;;;1.30;1.20;;;;;;;;;;4917210;29;20041;-78
2022/11/14 04:04:29;;;;;;;1.63;1.30;;;;;;;;;;4930792;29;20035;-78
2022/11/14 04:07:14;;;;;;;3.25;1.40;;;;;;;;;;4931269;29;20416;-78
2022/11/14 04:09:59;;;;;;;1.17;0.95;;;;;;;;;;4927587;29;20071;-78
2022/11/14 04:12:46;;;;;;;4.10;1.63;;;;;;;;;;4929355;29;20741;-79
2022/11/14 04:15:30;;;;;;;2.45;1.38;;;;;;;;;;4927292;29;20071;-79
2022/11/14 04:18:15;;;;;;;2.30;1.75;;;;;;;;;;4930108;29;20035;-78
2022/11/14 04:20:59;;;;;;;2.65;1.60;;;;;;;;;;4944127;29;20074;-79
2022/11/14 04:23:44;;;;;;;1.60;1.50;;;;;;;;;;4942949;29;20685;-79
2022/11/14 04:26:28;;;;;;;7.60;1.90;;;;;;;;;;4945535;29;20046;-78
2022/11/14 04:29:13;;;;;;;2.38;1.70;;;;;;;;;;4898858;29;20099;-78
2022/11/14 04:31:57;;;;;;;4.00;1.35;;;;;;;;;;4915164;29;20054;-77
2022/11/14 04:34:42;;;;;;;4.50;1.63;;;;;;;;;;4915045;29;20039;-77
2022/11/14 04:37:28;;;;;;;1.48;1.42;;;;;;;;;;4928867;29;20114;-78
2022/11/14 04:40:13;;;;;;;1.77;1.67;;;;;;;;;;4917042;29;20031;-79
2022/11/14 04:42:58;;;;;;;1.80;1.70;;;;;;;;;;4934195;29;20031;-78
2022/11/14 04:45:42;;;;;;;2.10;1.83;;;;;;;;;;4950374;29;20089;-78
2022/11/14 04:48:27;;;;;;;2.17;1.73;;;;;;;;;;4919905;29;20035;-79
2022/11/14 04:51:11;;;;;;;1.70;1.38;;;;;;;;;;4950885;28;20435;-78
2022/11/14 04:53:56;;;;;;;1.33;1.23;;;;;;;;;;4954128;29;20043;-78
2022/11/14 04:56:40;;;;;;;4.65;1.70;;;;;;;;;;4954199;29;20516;-80
2022/11/14 04:59:25;;;;;;;2.13;1.60;;;;;;;;;;4936863;29;20089;-79
2022/11/14 05:02:09;;;;;;;2.15;1.95;;;;;;;;;;4954188;29;20050;-80
2022/11/14 05:04:54;;;;;;;2.53;2.05;;;;;;;;;;4953354;29;20039;-78
2022/11/14 05:07:38;;;;;;;2.97;2.13;;;;;;;;;;4934777;29;20036;-77
2022/11/14 05:10:23;;;;;;;3.28;2.28;;;;;;;;;;4934178;29;20048;-78
2022/11/14 05:13:07;;;;;;;1.88;1.77;;;;;;;;;;4910386;29;20031;-78
2022/11/14 05:15:52;;;;;;;5.50;2.50;;;;;;;;;;4943532;29;20031;-78
2022/11/14 05:18:36;;;;;;;3.38;2.05;;;;;;;;;;4953884;29;20043;-78
2022/11/14 05:21:21;;;;;;;2.13;1.77;;;;;;;;;;4943004;29;20055;-78
2022/11/14 05:24:05;;;;;;;1.67;1.50;;;;;;;;;;4917686;29;20040;-78
2022/11/14 05:26:49;;;;;;;2.65;1.70;;;;;;;;;;4924059;29;20677;-79
2022/11/14 05:29:34;;;;;;;2.05;1.85;;;;;;;;;;4953898;29;20046;-79
2022/11/14 05:32:18;;;;;;;2.42;2.10;;;;;;;;;;4954503;29;20071;-77
2022/11/14 05:35:03;;;;;;;2.35;2.10;;;;;;;;;;4939656;29;20039;-74
2022/11/14 05:37:48;;;;;;;3.22;2.22;;;;;;;;;;4952754;29;20097;-73
2022/11/14 05:40:32;;;;;;;5.00;2.63;;;;;;;;;;4952978;29;20031;-75
2022/11/14 05:43:17;;;;;;;2.13;1.80;;;;;;;;;;4960238;28;20031;-73
2022/11/14 05:46:02;;;;;;;2.72;2.53;;;;;;;;;;4925770;29;20051;-74
2022/11/14 05:48:47;;;;;;;2.55;1.77;;;;;;;;;;4949078;29;20039;-74
2022/11/14 05:51:32;;;;;;;4.13;2.75;;;;;;;;;;4958034;29;20051;-73
2022/11/14 05:54:16;;;;;;;3.15;2.38;;;;;;;;;;4936507;29;20038;-75
2022/11/14 05:57:00;;;;;;;4.15;1.83;;;;;;;;;;4950499;29;20035;-75
2022/11/14 05:59:45;;;;;;;3.47;2.35;;;;;;;;;;4944113;29;20063;-73
2022/11/14 06:02:30;;;;;;;5.05;2.38;;;;;;;;;;4941124;28;20039;-74
2022/11/14 06:05:15;;;;;;;2.88;2.10;;;;;;;;;;4933671;29;20031;-74
2022/11/14 06:08:00;;;;;;;2.97;2.00;;;;;;;;;;4927089;29;20046;-74
2022/11/14 06:10:44;;;;;;;2.70;2.50;;;;;;;;;;4936003;29;20049;-72
2022/11/14 06:13:28;;;;;;;5.40;2.50;;;;;;;;;;4948966;29;20034;-72
2022/11/14 06:16:16;;;;;;;6.75;2.05;;;;;;;;;;4950004;29;20046;-72
2022/11/14 06:19:01;;;;;;;10.00;3.03;;;;;;;;;;4935091;29;20042;-75
2022/11/14 06:21:45;;;;;;;2.92;2.20;;;;;;;;;;4932655;29;20051;-73
2022/11/14 06:24:30;;;;;;;4.95;2.85;;;;;;;;;;4945892;29;20064;-73
2022/11/14 06:27:14;;;;;;;2.38;2.17;;;;;;;;;;4950606;29;20546;-73
2022/11/14 06:29:59;;;;;;;2.58;2.38;;;;;;;;;;4933095;29;20043;-73
2022/11/14 06:32:43;;;;;;;2.67;2.25;;;;;;;;;;4922583;29;20027;-79
2022/11/14 06:35:28;;;;;;;4.72;2.13;;;;;;;;;;4914531;29;20118;-74
2022/11/14 06:38:12;;;;;;;3.50;2.03;;;;;;;;;;4933989;29;20035;-73
2022/11/14 06:41:02;;;;;;;6.53;2.33;;;;;;;;;;4947490;29;20035;-74
2022/11/14 06:43:48;;;;;;;2.70;2.47;;;;;;;;;;4932459;29;20035;-74
2022/11/14 06:46:33;;;;;;;4.18;2.10;;;;;;;;;;4946431;29;20039;-75
2022/11/14 06:49:17;;;;;;;4.38;2.25;;;;;;;;;;4930919;29;20040;-75
2022/11/14 06:52:02;;;;;;;3.25;2.08;;;;;;;;;;4935328;29;20047;-75
2022/11/14 06:54:46;;;;;;;2.13;1.92;;;;;;;;;;4948551;29;20039;-74
2022/11/14 06:57:31;;;;;;;7.35;4.03;;;;;;;;;;4947667;29;20106;-74
2022/11/14 07:00:16;;;;;;;2.30;2.20;;;;;;;;;;4949690;29;20049;-74
2022/11/14 07:03:01;;;;;;;31.85;2.88;;;;;;;;;;4948532;29;20042;-76
2022/11/14 07:05:45;;;;;;;2.35;2.00;;;;;;;;;;4949865;29;20043;-75
2022/11/14 07:08:30;;;;;;;9.02;2.28;;;;;;;;;;4950387;29;20035;-77
2022/11/14 07:11:24;;;;;;;4.68;2.90;;;;;;;;;;4931014;29;20043;-75
2022/11/14 07:14:09;;;;;;;5.25;2.28;;;;;;;;;;4932859;29;20162;-74
2022/11/14 07:16:54;;;;;;;2.60;2.17;;;;;;;;;;4951340;29;20038;-73
2022/11/14 07:19:38;;;;;;;8.23;1.70;;;;;;;;;;4950060;29;20562;-73
2022/11/14 07:22:23;;;;;;;1.80;1.70;;;;;;;;;;4925487;29;20142;-73
2022/11/14 07:25:07;;;;;;;6.70;1.70;;;;;;;;;;4950522;29;20563;-73
2022/11/14 07:27:52;;;;;;;3.67;1.95;;;;;;;;;;4951140;29;20031;-78
2022/11/14 07:30:37;;;;;;;2.10;1.90;;;;;;;;;;4963996;29;20047;-76
2022/11/14 07:33:22;;;;;;;2.45;2.15;;;;;;;;;;4960390;29;20050;-75
2022/11/14 07:36:07;;;;;;;5.43;3.35;;;;;;;;;;4950144;29;20091;-74
2022/11/14 07:38:51;;;;;;;3.17;2.38;;;;;;;;;;4925111;29;20114;-74
2022/11/14 07:41:36;;;;;;;4.55;1.92;;;;;;;;;;4932600;29;20073;-75
2022/11/14 07:44:20;;;;;;;5.55;1.88;;;;;;;;;;4948790;29;20698;-76
2022/11/14 07:47:06;;;;;;;2.80;1.88;;;;;;;;;;4948366;29;20039;-73
2022/11/14 07:49:50;;;;;;;1.85;1.75;;;;;;;;;;4929895;29;20500;-76
2022/11/14 07:52:35;;;;;;;3.75;2.40;;;;;;;;;;4946764;29;20392;-73
2022/11/14 07:55:19;;;;;;;1.88;1.77;;;;;;;;;;4948137;29;20035;-74
2022/11/14 07:58:04;;;;;;;2.60;1.80;;;;;;;;;;4934650;29;20070;-73
2022/11/14 08:00:49;;;;;;;3.58;2.15;;;;;;;;;;4948107;28;20031;-74
2022/11/14 08:03:34;;;;;;;6.55;1.95;;;;;;;;;;4934118;29;20046;-74
2022/11/14 08:06:18;;;;;;;4.38;2.03;;;;;;;;;;4947366;29;20082;-74
2022/11/14 08:09:03;;;;;;;5.10;2.75;;;;;;;;;;4947977;29;20428;-72
2022/11/14 08:11:48;;;;;;;3.58;2.70;;;;;;;;;;4921461;29;20508;-73
2022/11/14 08:14:32;;;;;;;5.45;1.98;;;;;;;;;;4947208;29;20027;-73
2022/11/14 08:17:16;;;;;;;1.92;1.63;;;;;;;;;;4948884;29;20441;-73
2022/11/14 08:20:01;;;;;;;6.57;2.17;;;;;;;;;;4933598;29;20062;-74
2022/11/14 08:22:46;;;;;;;3.97;2.10;;;;;;;;;;4946850;29;20115;-74
2022/11/14 08:25:30;;;;;;;3.85;2.70;;;;;;;;;;4945731;28;20046;-73
2022/11/14 08:28:15;;;;;;;5.53;3.25;;;;;;;;;;4947996;29;20087;-73
2022/11/14 08:31:00;;;;;;;8.30;2.15;;;;;;;;;;4933626;29;20043;-74
2022/11/14 08:33:45;;;;;;;4.05;2.17;;;;;;;;;;4948365;29;20392;-74
2022/11/14 08:36:29;;;;;;;2.30;2.10;;;;;;;;;;4950518;29;20043;-74
2022/11/14 08:39:14;;;;;;;2.42;1.85;;;;;;;;;;4949368;29;20027;-73
2022/11/14 08:41:58;;;;;;;2.40;1.83;;;;;;;;;;4948119;29;20051;-73
2022/11/14 08:44:43;;;;;;;5.68;1.60;;;;;;;;;;4946748;29;20066;-73
2022/11/14 08:47:29;;;;;;;4.30;2.30;;;;;;;;;;4949618;29;20042;-73
2022/11/14 08:50:14;;;;;;;2.10;1.75;;;;;;;;;;4947492;29;20040;-75
2022/11/14 08:52:59;;;;;;;2.40;1.65;;;;;;;;;;4950366;29;20042;-75
2022/11/14 08:55:43;;;;;;;4.07;2.15;;;;;;;;;;4950922;29;20070;-74
2022/11/14 08:58:29;;;;;;;7.25;2.42;;;;;;;;;;4947046;29;20192;-73
2022/11/14 09:01:13;;;;;;;3.90;3.08;;;;;;;;;;4933552;29;20082;-74
2022/11/14 09:03:58;;;;;;;3.30;1.98;;;;;;;;;;4951226;29;20054;-74
2022/11/14 09:06:45;;;;;;;1.63;1.52;;;;;;;;;;4946145;29;20045;-73
2022/11/14 09:09:29;;;;;;;3.33;1.90;;;;;;;;;;4932782;29;20041;-74
2022/11/14 09:12:13;;;;;;;2.25;1.63;;;;;;;;;;4947641;29;20090;-73
2022/11/14 09:14:58;;;;;;;4.82;1.77;;;;;;;;;;4910653;29;20050;-75
2022/11/14 09:17:43;;;;;;;2.78;1.80;;;;;;;;;;4946521;29;20042;-75
2022/11/14 09:20:29;;;;;;;5.18;2.15;;;;;;;;;;4921267;29;20090;-74
2022/11/14 09:23:13;;;;;;;6.43;2.08;;;;;;;;;;4945375;29;20582;-76
2022/11/14 09:26:01;;;;;;;3.92;2.00;;;;;;;;;;4930058;29;20027;-73
2022/11/14 09:28:46;;;;;;;6.85;2.00;;;;;;;;;;4947529;29;20066;-76
2022/11/14 09:31:31;;;;;;;2.97;1.67;;;;;;;;;;4948162;29;20043;-76
2022/11/14 09:34:16;;;;;;;3.10;1.90;;;;;;;;;;4946408;29;20028;-76
2022/11/14 09:37:01;;;;;;;5.55;2.15;;;;;;;;;;4944718;28;20578;-76
2022/11/14 09:39:45;;;;;;;2.22;1.98;;;;;;;;;;4951495;29;20605;-76
2022/11/14 09:42:39;;;;;;;6.47;2.38;;;;;;;;;;4951139;29;20177;-77
2022/11/14 09:45:24;;;;;;;7.63;1.80;;;;;;;;;;4950722;29;20069;-76
2022/11/14 09:48:12;;;;;;;2.58;2.13;;;;;;;;;;4951218;29;20131;-76
2022/11/14 09:51:06;;;;;;;3.50;1.67;;;;;;;;;;4935724;29;20066;-77
2022/11/14 09:53:55;;;;;;;4.50;2.47;;;;;;;;;;4946758;28;20035;-76
2022/11/14 09:56:39;;;;;;;4.90;1.55;;;;;;;;;;4932530;28;20037;-76
2022/11/14 09:59:24;;;;;;;5.55;2.38;;;;;;;;;;4929529;29;20056;-75
2022/11/14 10:02:12;;;;;;;3.85;1.95;;;;;;;;;;4921880;29;20038;-77
2022/11/14 10:05:15;;;;;;;2.58;2.30;;;;;;;;;;4950205;28;20039;-76
2022/11/14 10:08:14;;;;;;;3.67;1.77;;;;;;;;;;4944130;28;20035;-76
2022/11/14 10:11:01;;;;;;;2.00;1.90;;;;;;;;;;4934240;29;20043;-75
2022/11/14 10:13:51;;;;;;;2.55;1.90;;;;;;;;;;4942907;28;20488;-78
2022/11/14 10:16:40;;;;;;;1.97;1.50;;;;;;;;;;4944981;28;20078;-76
2022/11/14 10:19:26;;;;;;;3.17;1.90;;;;;;;;;;4931976;28;20035;-74
2022/11/14 10:22:11;;;;;;;3.10;1.90;;;;;;;;;;4927959;28;20094;-75
2022/11/14 10:25:02;;;;;;;3.10;2.03;;;;;;;;;;4932066;29;20039;-74
2022/11/14 10:27:49;;;;;;;3.13;2.55;;;;;;;;;;4934928;29;20040;-74
2022/11/14 10:30:35;;;;;;;5.47;2.60;;;;;;;;;;4945300;28;20046;-72
2022/11/14 10:33:20;;;;;;;3.58;2.30;;;;;;;;;;4945898;28;20035;-73
2022/11/14 10:36:07;;;;;;;2.30;2.13;;;;;;;;;;4947543;29;20039;-74
2022/11/14 10:38:53;;;;;;;3.00;2.55;;;;;;;;;;4932969;28;20090;-74
2022/11/14 10:41:37;;;;;;;3.33;2.58;;;;;;;;;;4922182;29;20602;-73
2022/11/14 10:44:24;;;;;;;5.65;2.47;;;;;;;;;;4947989;29;20042;-74
2022/11/14 10:47:10;;;;;;;4.03;2.30;;;;;;;;;;4949811;29;20054;-73
2022/11/14 10:49:55;;;;;;;5.18;1.80;;;;;;;;;;4944171;28;20031;-74
2022/11/14 10:52:40;;;;;;;3.70;3.05;;;;;;;;;;4925740;29;20051;-74
2022/11/14 10:55:24;;;;;;;5.55;2.40;;;;;;;;;;4921835;29;20040;-74
2022/11/14 10:58:09;;;;;;;3.60;2.55;;;;;;;;;;4924386;29;20039;-74
2022/11/14 11:00:54;;;;;;;3.17;1.80;;;;;;;;;;4947680;28;20031;-73
2022/11/14 11:03:39;;;;;;;6.13;1.73;;;;;;;;;;4935758;29;20150;-74
2022/11/14 11:06:24;;;;;;;8.70;1.88;;;;;;;;;;4935058;29;20043;-74
2022/11/14 11:12:16;;;;;;;2.60;1.83;;;;;;;;;;4947685;28;20051;-73
2022/11/14 11:15:07;;;;;;;4.65;2.50;;;;;;;;;;4930022;28;20094;-74
2022/11/14 11:18:01;;;;;;;3.17;2.17;;;;;;;;;;4946830;28;20034;-74
2022/11/14 11:20:46;;;;;;;3.00;2.05;;;;;;;;;;4929059;29;20303;-72
2022/11/14 11:23:30;;;;;;;11.63;2.30;;;;;;;;;;4916193;29;20035;-75
2022/11/14 11:26:15;;;;;;;4.25;2.10;;;;;;;;;;4926531;29;20419;-73
2022/11/14 11:29:08;;;;;;;6.75;1.88;;;;;;;;;;4943318;28;20038;-72
2022/11/14 11:31:53;;;;;;;1.80;1.70;;;;;;;;;;4946940;28;20050;-72
2022/11/14 11:34:38;;;;;;;3.97;2.25;;;;;;;;;;4925588;29;20045;-73
2022/11/14 11:37:32;;;;;;;1.70;1.60;;;;;;;;;;4934640;29;20075;-74
2022/11/14 11:40:18;;;;;;;2.75;2.22;;;;;;;;;;4946749;29;20042;-74
2022/11/14 11:43:04;;;;;;;2.40;2.17;;;;;;;;;;4943286;28;20086;-73
2022/11/14 11:45:49;;;;;;;2.90;1.92;;;;;;;;;;4946256;28;20035;-74
2022/11/14 11:48:36;;;;;;;1.67;1.58;;;;;;;;;;4942648;28;20031;-73
2022/11/14 11:51:21;;;;;;;6.03;2.47;;;;;;;;;;4931605;28;20050;-73
2022/11/14 11:54:15;;;;;;;4.47;3.00;;;;;;;;;;4916333;28;20031;-73
2022/11/14 11:57:01;;;;;;;7.85;2.70;;;;;;;;;;4925206;29;20062;-73
2022/11/14 11:59:49;;;;;;;4.03;2.70;;;;;;;;;;4932844;28;20059;-73
2022/11/14 12:02:33;;;;;;;5.57;2.45;;;;;;;;;;4920815;29;20063;-73
2022/11/14 12:05:21;;;;;;;2.92;2.17;;;;;;;;;;4931958;28;20039;-75
2022/11/14 12:08:26;;;;;;;3.13;2.22;;;;;;;;;;4932163;29;20456;-73
2022/11/14 12:11:11;;;;;;;2.60;2.40;;;;;;;;;;4948201;29;20058;-74
2022/11/14 12:14:14;;;;;;;3.63;2.47;;;;;;;;;;4923039;28;20796;-75
2022/11/14 12:17:11;;;;;;;2.10;1.90;;;;;;;;;;4946421;28;20682;-76
2022/11/14 12:20:10;;;;;;;7.82;2.80;;;;;;;;;;4943224;28;20154;-77
2022/11/14 12:23:01;;;;;;;7.88;2.67;;;;;;;;;;4946047;28;20423;-80
2022/11/14 12:25:48;;;;;;;8.05;3.15;;;;;;;;;;4943899;29;20042;-76
2022/11/14 12:28:48;;;;;;;2.85;2.35;;;;;;;;;;4928566;29;20670;-76
2022/11/14 12:31:33;;;;;;;4.55;2.40;;;;;;;;;;4955440;28;20050;-76
2022/11/14 12:34:44;;;;;;;4.95;2.17;;;;;;;;;;4955469;28;20038;-75
2022/11/14 12:37:32;;;;;;;2.13;1.90;;;;;;;;;;4940858;29;20093;-75
2022/11/14 12:40:19;;;;;;;6.50;2.20;;;;;;;;;;4957407;29;20128;-76
2022/11/14 12:43:05;;;;;;;4.90;2.10;;;;;;;;;;4930542;29;20447;-76
2022/11/14 12:45:49;;;;;;;2.75;2.22;;;;;;;;;;4925507;28;20043;-76
2022/11/14 12:48:43;;;;;;;6.68;2.20;;;;;;;;;;4947062;28;20539;-75
2022/11/14 12:51:34;;;;;;;2.53;1.95;;;;;;;;;;4946301;29;20089;-75
2022/11/14 12:54:53;;;;;;;6.07;1.90;;;;;;;;;;4944925;29;20039;-76
2022/11/14 12:57:46;;;;;;;2.92;2.00;;;;;;;;;;4852367;29;20133;-75
2022/11/14 13:00:31;;;;;;;2.22;2.10;;;;;;;;;;4928047;28;20043;-77
2022/11/14 13:03:18;;;;;;;3.92;2.30;;;;;;;;;;4932242;29;20055;-77
2022/11/14 13:06:03;;;;;;;4.05;2.03;;;;;;;;;;4947864;29;20515;-77
2022/11/14 13:09:16;;;;;;;3.03;1.92;;;;;;;;;;4927791;29;20637;-77
2022/11/14 13:22:12;;;;;;;2.70;1.80;;;;;;;;;;4950091;29;20043;-76
2022/11/14 13:24:57;;;;;;;3.95;2.00;;;;;;;;;;4950109;29;20078;-74
2022/11/14 13:27:42;;;;;;;4.00;1.90;;;;;;;;;;4950570;29;20027;-73
2022/11/14 13:30:46;;;;;;;4.05;1.35;;;;;;;;;;4941161;28;20043;-73
2022/11/14 13:33:40;;;;;;;1.73;1.50;;;;;;;;;;4926043;28;20542;-75
2022/11/14 13:36:40;;;;;;;3.33;1.63;;;;;;;;;;4947767;28;20139;-72
2022/11/14 13:39:37;;;;;;;1.35;1.25;;;;;;;;;;4932934;29;20649;-74
2022/11/14 13:42:24;;;;;;;4.35;2.13;;;;;;;;;;4927535;29;20027;-74
2022/11/14 13:45:22;;;;;;;2.80;2.60;;;;;;;;;;4949485;29;20039;-75
2022/11/14 13:48:10;;;;;;;2.92;1.98;;;;;;;;;;4935198;29;20044;-75
2022/11/14 13:50:55;;;;;;;3.13;2.00;;;;;;;;;;4948888;29;20047;-76
2022/11/14 13:53:39;;;;;;;3.53;2.70;;;;;;;;;;4934920;29;20039;-74
2022/11/14 13:56:48;;;;;;;3.97;2.60;;;;;;;;;;4932694;28;20062;-74
2022/11/14 13:59:36;;;;;;;2.95;1.80;;;;;;;;;;4934390;29;20524;-74
2022/11/14 14:02:27;;;;;;;1.88;1.55;;;;;;;;;;4948356;28;20066;-74
2022/11/14 14:05:41;;;;;;;4.50;2.33;;;;;;;;;;4945559;28;20035;-74
2022/11/14 14:08:31;;;;;;;3.75;2.45;;;;;;;;;;4871049;28;20061;-74
2022/11/14 14:11:28;;;;;;;5.70;1.80;;;;;;;;;;4934608;29;20047;-75
2022/11/14 14:14:23;;;;;;;4.15;2.80;;;;;;;;;;4948707;28;20027;-75
2022/11/14 14:17:12;;;;;;;9.75;2.03;;;;;;;;;;4935893;29;20035;-76
2022/11/14 14:20:16;;;;;;;3.83;1.77;;;;;;;;;;4949605;29;20055;-75
2022/11/14 14:23:19;;;;;;;3.15;2.22;;;;;;;;;;4950693;28;20411;-74
2022/11/14 14:26:23;;;;;;;2.13;1.80;;;;;;;;;;4944849;28;20606;-75
2022/11/14 14:29:21;;;;;;;4.85;2.20;;;;;;;;;;4946250;28;20149;-73
2022/11/14 14:32:06;;;;;;;4.20;2.15;;;;;;;;;;4946918;28;20094;-73
2022/11/14 14:34:52;;;;;;;4.07;2.85;;;;;;;;;;4945737;28;20051;-74
2022/11/14 14:37:37;;;;;;;4.65;1.83;;;;;;;;;;4933201;28;20035;-73
2022/11/14 14:40:28;;;;;;;4.30;2.20;;;;;;;;;;4946168;29;20469;-72
2022/11/14 14:43:12;;;;;;;;;;;;;;;;;;4933761;28;20090;-73
2022/11/14 14:45:57;;;;;;;4.22;1.92;;;;;;;;;;4948798;29;19914;-74
2022/11/14 14:48:41;;;;;;;3.85;2.00;;;;;;;;;;4949075;29;20039;-72
2022/11/14 14:51:32;;;;;;;8.27;2.30;;;;;;;;;;4912830;29;20043;-72
2022/11/14 14:54:20;;;;;;;3.53;2.20;;;;;;;;;;4945662;29;20563;-72
2022/11/14 14:57:04;;;;;;;3.75;2.00;;;;;;;;;;4930916;29;20122;-73
2022/11/14 14:59:58;;;;;;;6.68;2.33;;;;;;;;;;4934266;29;20031;-73
2022/11/14 15:02:43;;;;;;;2.92;2.28;;;;;;;;;;4947702;29;20123;-72
2022/11/14 15:05:28;;;;;;;6.40;2.60;;;;;;;;;;4934421;29;20054;-73
2022/11/14 15:08:13;;;;;;;3.45;1.67;;;;;;;;;;4946060;29;20174;-72
2022/11/14 15:10:58;;;;;;;2.72;2.10;;;;;;;;;;4926726;29;20039;-72
2022/11/14 15:13:43;;;;;;;2.70;1.92;;;;;;;;;;4924381;29;20027;-72
2022/11/14 15:16:28;;;;;;;4.03;1.92;;;;;;;;;;4931062;29;20046;-72
2022/11/14 15:19:12;;;;;;;2.22;1.67;;;;;;;;;;4948629;28;20547;-73
2022/11/14 15:22:00;;;;;;;2.60;2.10;;;;;;;;;;4922175;29;20527;-72
2022/11/14 15:25:04;;;;;;;17.10;2.60;;;;;;;;;;4907892;29;20448;-73
2022/11/14 15:27:50;;;;;;;2.80;1.83;;;;;;;;;;4925689;29;20126;-74
2022/11/14 15:30:35;;;;;;;5.57;1.67;;;;;;;;;;4912544;29;20044;-73
2022/11/14 15:33:26;;;;;;;2.90;2.10;;;;;;;;;;4924098;29;20034;-73
2022/11/14 15:36:11;;;;;;;4.13;2.20;;;;;;;;;;4925719;29;20040;-72
2022/11/14 15:39:21;;;;;;;2.90;1.70;;;;;;;;;;4921979;29;20042;-73
2022/11/14 15:42:13;;;;;;;2.47;1.75;;;;;;;;;;4915517;29;20032;-73
2022/11/14 15:44:58;;;;;;;1.80;1.70;;;;;;;;;;4931641;29;20558;-74
2022/11/14 15:47:42;;;;;;;5.30;1.80;;;;;;;;;;4931411;29;20066;-73
2022/11/14 15:50:28;;;;;;;3.72;2.30;;;;;;;;;;4928048;29;20051;-75
2022/11/14 15:53:16;;;;;;;2.28;1.65;;;;;;;;;;4931174;29;20118;-74
2022/11/14 15:56:01;;;;;;;4.22;1.60;;;;;;;;;;4930252;29;20492;-74
2022/11/14 15:58:46;;;;;;;7.60;2.05;;;;;;;;;;4928558;29;20563;-74
2022/11/14 16:01:30;;;;;;;2.78;1.75;;;;;;;;;;4932564;29;20032;-74
2022/11/14 16:04:25;;;;;;;2.65;1.98;;;;;;;;;;4931028;29;20046;-74
2022/11/14 16:07:12;;;;;;;3.78;1.90;;;;;;;;;;4933251;29;20386;-74
2022/11/14 16:09:57;;;;;;;2.58;1.50;;;;;;;;;;4926651;29;20062;-75
2022/11/14 16:12:41;;;;;;;1.55;1.45;;;;;;;;;;4929582;29;20043;-74
2022/11/14 16:15:26;;;;;;;4.07;1.70;;;;;;;;;;4930478;29;20040;-74
2022/11/14 16:18:10;;;;;;;2.25;1.70;;;;;;;;;;4934524;29;20132;-73
2022/11/14 16:20:58;;;;;;;2.22;1.83;;;;;;;;;;4941933;29;20051;-74
2022/11/14 16:23:42;;;;;;;3.00;1.92;;;;;;;;;;4945633;29;20095;-73
2022/11/14 16:26:28;;;;;;;1.92;1.42;;;;;;;;;;4931458;29;20119;-74
2022/11/14 16:29:13;;;;;;;1.60;1.50;;;;;;;;;;4941151;29;20128;-72
2022/11/14 16:31:57;;;;;;;5.45;2.20;;;;;;;;;;4932407;29;20043;-74
2022/11/14 16:34:42;;;;;;;1.85;1.52;;;;;;;;;;4946954;28;20126;-74
2022/11/14 16:37:29;;;;;;;3.03;1.80;;;;;;;;;;4933369;29;20330;-74
2022/11/14 16:40:21;;;;;;;3.40;1.45;;;;;;;;;;4948006;29;20047;-74
2022/11/14 16:43:07;;;;;;;1.83;1.52;;;;;;;;;;4917594;29;20035;-74
2022/11/14 16:45:52;;;;;;;5.95;2.70;;;;;;;;;;4929540;29;20114;-73
2022/11/14 16:48:37;;;;;;;1.60;1.50;;;;;;;;;;4952036;29;20043;-73
2022/11/14 16:51:21;;;;;;;3.65;2.08;;;;;;;;;;4949599;28;20047;-75
2022/11/14 16:54:06;;;;;;;4.05;1.73;;;;;;;;;;4930987;29;20065;-74